sensor_id;sensor_type;location;lat;lon;timestamp;pressure;altitude;pressure_sealevel;temperature;humidity
56270;BME280;42176;43.240;27.880;2022-07-06T00:01:10;99937.41;;;19.90;76.52
56270;BME280;42176;43.240;27.880;2022-07-06T00:03:35;99936.34;;;19.93;76.77
56270;BME280;42176;43.240;27.880;2022-07-06T00:06:01;99933.53;;;19.95;76.30
56270;BME280;42176;43.240;27.880;2022-07-06T00:08:26;99927.22;;;19.96;76.36
56270;BME280;42176;43.240;27.880;2022-07-06T00:10:52;99931.31;;;20.01;76.07
56270;BME280;42176;43.240;27.880;2022-07-06T00:13:17;99921.44;;;20.02;75.27
56270;BME280;42176;43.240;27.880;2022-07-06T00:15:43;99923.06;;;20.04;74.88
56270;BME280;42176;43.240;27.880;2022-07-06T00:18:08;99932.78;;;20.07;74.40
56270;BME280;42176;43.240;27.880;2022-07-06T00:20:34;99931.06;;;20.06;74.28
56270;BME280;42176;43.240;27.880;2022-07-06T00:22:59;99933.75;;;20.06;74.25
56270;BME280;42176;43.240;27.880;2022-07-06T00:25:25;99932.78;;;20.07;74.42
56270;BME280;42176;43.240;27.880;2022-07-06T00:27:50;99932.78;;;20.07;74.32
56270;BME280;42176;43.240;27.880;2022-07-06T00:30:15;99934.50;;;20.08;74.21
56270;BME280;42176;43.240;27.880;2022-07-06T00:32:41;99936.44;;;20.06;74.01
56270;BME280;42176;43.240;27.880;2022-07-06T00:35:07;99928.44;;;20.04;73.17
56270;BME280;42176;43.240;27.880;2022-07-06T00:37:32;99933.94;;;20.03;72.04
56270;BME280;42176;43.240;27.880;2022-07-06T00:39:58;99927.78;;;20.01;72.21
56270;BME280;42176;43.240;27.880;2022-07-06T00:42:23;99926.06;;;20.00;71.40
56270;BME280;42176;43.240;27.880;2022-07-06T00:44:50;99922.41;;;20.01;71.01
56270;BME280;42176;43.240;27.880;2022-07-06T00:47:15;99911.94;;;19.96;70.90
56270;BME280;42176;43.240;27.880;2022-07-06T00:49:41;99917.22;;;19.98;70.86
56270;BME280;42176;43.240;27.880;2022-07-06T00:52:25;99900.41;;;19.94;71.30
56270;BME280;42176;43.240;27.880;2022-07-06T00:54:51;99908.19;;;19.99;71.04
56270;BME280;42176;43.240;27.880;2022-07-06T00:57:17;99901.38;;;19.93;69.90
56270;BME280;42176;43.240;27.880;2022-07-06T00:59:43;99905.50;;;19.99;68.61
56270;BME280;42176;43.240;27.880;2022-07-06T01:02:08;99899.53;;;19.93;67.49
56270;BME280;42176;43.240;27.880;2022-07-06T01:04:34;99899.97;;;19.87;66.91
56270;BME280;42176;43.240;27.880;2022-07-06T01:07:00;99901.06;;;19.83;66.33
56270;BME280;42176;43.240;27.880;2022-07-06T01:09:25;99901.50;;;19.77;65.43
56270;BME280;42176;43.240;27.880;2022-07-06T01:11:52;99874.34;;;19.53;64.07
56270;BME280;42176;43.240;27.880;2022-07-06T01:14:17;99893.50;;;19.75;62.71
56270;BME280;42176;43.240;27.880;2022-07-06T01:16:44;99900.50;;;19.78;61.74
56270;BME280;42176;43.240;27.880;2022-07-06T01:19:09;99899.66;;;19.77;60.30
56270;BME280;42176;43.240;27.880;2022-07-06T01:21:37;99895.13;;;19.78;59.40
56270;BME280;42176;43.240;27.880;2022-07-06T01:24:03;99878.97;;;19.78;58.85
56270;BME280;42176;43.240;27.880;2022-07-06T01:26:28;99886.50;;;19.73;58.20
56270;BME280;42176;43.240;27.880;2022-07-06T01:28:55;99884.13;;;19.68;57.80
56270;BME280;42176;43.240;27.880;2022-07-06T01:31:23;99894.41;;;19.61;57.29
56270;BME280;42176;43.240;27.880;2022-07-06T01:33:49;99890.19;;;19.57;57.13
56270;BME280;42176;43.240;27.880;2022-07-06T01:36:16;99898.44;;;19.54;56.76
56270;BME280;42176;43.240;27.880;2022-07-06T01:41:14;99887.88;;;19.51;56.51
56270;BME280;42176;43.240;27.880;2022-07-06T01:43:40;99887.88;;;19.51;56.61
56270;BME280;42176;43.240;27.880;2022-07-06T01:46:05;99888.75;;;19.52;56.82
56270;BME280;42176;43.240;27.880;2022-07-06T01:48:31;99891.50;;;19.50;57.97
56270;BME280;42176;43.240;27.880;2022-07-06T01:50:57;99886.31;;;19.47;57.91
56270;BME280;42176;43.240;27.880;2022-07-06T01:53:22;99890.19;;;19.43;57.63
56270;BME280;42176;43.240;27.880;2022-07-06T01:55:47;99886.72;;;19.41;57.78
56270;BME280;42176;43.240;27.880;2022-07-06T01:58:13;99887.69;;;19.40;57.70
56270;BME280;42176;43.240;27.880;2022-07-06T02:00:39;99891.44;;;19.37;54.63
56270;BME280;42176;43.240;27.880;2022-07-06T02:03:04;99897.47;;;19.41;53.86
56270;BME280;42176;43.240;27.880;2022-07-06T02:05:29;99886.72;;;19.41;53.11
56270;BME280;42176;43.240;27.880;2022-07-06T02:07:55;99890.00;;;19.46;52.96
56270;BME280;42176;43.240;27.880;2022-07-06T02:10:20;99893.25;;;19.51;52.53
56270;BME280;42176;43.240;27.880;2022-07-06T02:12:46;99879.72;;;19.53;52.66
56270;BME280;42176;43.240;27.880;2022-07-06T02:15:12;99883.06;;;19.56;52.10
56270;BME280;42176;43.240;27.880;2022-07-06T02:17:37;99886.88;;;19.67;51.46
56270;BME280;42176;43.240;27.880;2022-07-06T02:20:04;99888.25;;;19.74;51.13
56270;BME280;42176;43.240;27.880;2022-07-06T02:22:30;99885.06;;;19.82;51.10
56270;BME280;42176;43.240;27.880;2022-07-06T02:24:55;99888.25;;;19.88;50.35
56270;BME280;42176;43.240;27.880;2022-07-06T02:27:21;99883.22;;;19.97;49.94
56270;BME280;42176;43.240;27.880;2022-07-06T02:29:46;99894.53;;;20.02;49.09
56270;BME280;42176;43.240;27.880;2022-07-06T02:32:12;99888.00;;;20.06;48.26
56270;BME280;42176;43.240;27.880;2022-07-06T02:34:37;99882.19;;;20.12;47.65
56270;BME280;42176;43.240;27.880;2022-07-06T02:37:03;99881.59;;;20.21;48.10
56270;BME280;42176;43.240;27.880;2022-07-06T02:39:28;99879.25;;;20.30;48.29
56270;BME280;42176;43.240;27.880;2022-07-06T02:41:53;99871.53;;;20.38;48.37
56270;BME280;42176;43.240;27.880;2022-07-06T02:44:19;99874.75;;;20.43;48.01
56270;BME280;42176;43.240;27.880;2022-07-06T02:46:44;99877.81;;;20.51;47.38
56270;BME280;42176;43.240;27.880;2022-07-06T02:49:10;99865.13;;;20.53;47.52
56270;BME280;42176;43.240;27.880;2022-07-06T02:51:35;99864.16;;;20.54;47.93
56270;BME280;42176;43.240;27.880;2022-07-06T02:54:01;99831.47;;;20.33;48.36
56270;BME280;42176;43.240;27.880;2022-07-06T02:56:26;99864.16;;;20.54;48.33
56270;BME280;42176;43.240;27.880;2022-07-06T02:58:53;99863.16;;;20.56;48.21
56270;BME280;42176;43.240;27.880;2022-07-06T03:01:19;99859.41;;;20.58;48.10
56270;BME280;42176;43.240;27.880;2022-07-06T03:03:44;99862.53;;;20.65;47.65
56270;BME280;42176;43.240;27.880;2022-07-06T03:06:09;99863.84;;;20.72;47.60
56270;BME280;42176;43.240;27.880;2022-07-06T03:08:35;99863.47;;;20.78;47.60
56270;BME280;42176;43.240;27.880;2022-07-06T03:11:01;99864.09;;;20.82;47.60
56270;BME280;42176;43.240;27.880;2022-07-06T03:13:27;99868.19;;;20.88;47.00
56270;BME280;42176;43.240;27.880;2022-07-06T03:15:53;99856.25;;;20.92;46.98
56270;BME280;42176;43.240;27.880;2022-07-06T03:18:18;99850.75;;;20.93;47.30
56270;BME280;42176;43.240;27.880;2022-07-06T03:20:44;99857.44;;;21.01;47.55
56270;BME280;42176;43.240;27.880;2022-07-06T03:23:09;99855.16;;;21.07;47.73
56270;BME280;42176;43.240;27.880;2022-07-06T03:25:35;99853.75;;;21.27;47.26
56270;BME280;42176;43.240;27.880;2022-07-06T03:28:00;99857.06;;;21.70;47.02
56270;BME280;42176;43.240;27.880;2022-07-06T03:30:26;99859.38;;;22.12;45.87
56270;BME280;42176;43.240;27.880;2022-07-06T03:32:51;99851.22;;;22.49;45.56
56270;BME280;42176;43.240;27.880;2022-07-06T03:35:17;99863.72;;;22.86;44.80
56270;BME280;42176;43.240;27.880;2022-07-06T03:37:42;99861.84;;;23.22;45.57
56270;BME280;42176;43.240;27.880;2022-07-06T03:40:08;99863.41;;;23.59;45.99
56270;BME280;42176;43.240;27.880;2022-07-06T03:42:35;99861.19;;;23.98;45.36
56270;BME280;42176;43.240;27.880;2022-07-06T03:45:00;99863.50;;;24.35;45.47
56270;BME280;42176;43.240;27.880;2022-07-06T03:47:26;99851.53;;;24.70;43.58
56270;BME280;42176;43.240;27.880;2022-07-06T03:49:51;99874.13;;;25.02;44.54
56270;BME280;42176;43.240;27.880;2022-07-06T03:52:17;99865.88;;;25.34;44.33
56270;BME280;42176;43.240;27.880;2022-07-06T03:54:42;99865.75;;;25.67;43.95
56270;BME280;42176;43.240;27.880;2022-07-06T03:57:08;99866.94;;;25.94;42.97
56270;BME280;42176;43.240;27.880;2022-07-06T03:59:33;99875.31;;;26.32;43.08
56270;BME280;42176;43.240;27.880;2022-07-06T04:01:59;99875.88;;;26.65;42.17
56270;BME280;42176;43.240;27.880;2022-07-06T04:04:25;99876.44;;;26.98;41.81
56270;BME280;42176;43.240;27.880;2022-07-06T04:06:50;99876.31;;;27.37;41.75
56270;BME280;42176;43.240;27.880;2022-07-06T04:09:16;99877.38;;;27.64;40.14
56270;BME280;42176;43.240;27.880;2022-07-06T04:11:41;99874.94;;;27.89;39.48
56270;BME280;42176;43.240;27.880;2022-07-06T04:14:07;99869.09;;;28.11;38.95
56270;BME280;42176;43.240;27.880;2022-07-06T04:16:32;99864.16;;;28.69;37.26
56270;BME280;42176;43.240;27.880;2022-07-06T04:18:58;99865.22;;;29.21;37.23
56270;BME280;42176;43.240;27.880;2022-07-06T04:21:23;99859.06;;;29.45;37.16
56270;BME280;42176;43.240;27.880;2022-07-06T04:23:49;99829.88;;;29.46;35.66
56270;BME280;42176;43.240;27.880;2022-07-06T04:26:14;99854.00;;;30.10;36.55
56270;BME280;42176;43.240;27.880;2022-07-06T04:28:39;99851.31;;;30.84;36.23
56270;BME280;42176;43.240;27.880;2022-07-06T04:31:05;99858.00;;;31.55;35.33
56270;BME280;42176;43.240;27.880;2022-07-06T04:33:30;99862.25;;;31.97;34.86
56270;BME280;42176;43.240;27.880;2022-07-06T04:35:56;99860.13;;;32.39;33.23
56270;BME280;42176;43.240;27.880;2022-07-06T04:38:21;99868.00;;;32.80;32.56
56270;BME280;42176;43.240;27.880;2022-07-06T04:40:47;99867.81;;;33.20;32.27
56270;BME280;42176;43.240;27.880;2022-07-06T04:43:13;99870.97;;;33.47;31.38
56270;BME280;42176;43.240;27.880;2022-07-06T04:45:38;99862.28;;;33.80;30.50
56270;BME280;42176;43.240;27.880;2022-07-06T04:48:04;99865.81;;;33.89;30.24
56270;BME280;42176;43.240;27.880;2022-07-06T04:50:30;99860.78;;;33.93;30.51
56270;BME280;42176;43.240;27.880;2022-07-06T04:52:55;99858.34;;;33.68;30.65
56270;BME280;42176;43.240;27.880;2022-07-06T04:55:21;99851.69;;;33.77;30.35
56270;BME280;42176;43.240;27.880;2022-07-06T04:57:46;99860.13;;;34.12;29.87
56270;BME280;42176;43.240;27.880;2022-07-06T05:00:12;99861.34;;;34.46;28.91
56270;BME280;42176;43.240;27.880;2022-07-06T05:02:38;99869.50;;;34.55;29.01
56270;BME280;42176;43.240;27.880;2022-07-06T05:05:03;99860.81;;;34.36;29.21
56270;BME280;42176;43.240;27.880;2022-07-06T05:07:29;99843.00;;;34.32;29.16
56270;BME280;42176;43.240;27.880;2022-07-06T05:09:56;99872.06;;;34.85;28.57
56270;BME280;42176;43.240;27.880;2022-07-06T05:12:21;99875.94;;;35.19;27.84
56270;BME280;42176;43.240;27.880;2022-07-06T05:15:06;99870.63;;;35.17;28.08
56270;BME280;42176;43.240;27.880;2022-07-06T05:17:32;99869.63;;;35.25;28.50
56270;BME280;42176;43.240;27.880;2022-07-06T05:19:57;99879.53;;;35.48;28.00
56270;BME280;42176;43.240;27.880;2022-07-06T05:22:23;99869.19;;;35.57;27.83
56270;BME280;42176;43.240;27.880;2022-07-06T05:24:49;99872.47;;;35.87;27.41
56270;BME280;42176;43.240;27.880;2022-07-06T05:27:15;99874.28;;;36.15;27.45
56270;BME280;42176;43.240;27.880;2022-07-06T05:29:40;99874.56;;;35.78;27.72
56270;BME280;42176;43.240;27.880;2022-07-06T05:32:06;99871.00;;;35.43;28.51
56270;BME280;42176;43.240;27.880;2022-07-06T05:34:32;99872.47;;;35.03;27.93
56270;BME280;42176;43.240;27.880;2022-07-06T05:36:57;99878.09;;;34.73;28.18
56270;BME280;42176;43.240;27.880;2022-07-06T05:39:22;99869.56;;;34.61;27.85
56270;BME280;42176;43.240;27.880;2022-07-06T05:41:48;99884.03;;;34.34;28.02
56270;BME280;42176;43.240;27.880;2022-07-06T05:44:14;99876.56;;;34.42;28.77
56270;BME280;42176;43.240;27.880;2022-07-06T05:46:40;99863.19;;;34.61;28.24
56270;BME280;42176;43.240;27.880;2022-07-06T05:49:05;99874.25;;;35.18;27.80
56270;BME280;42176;43.240;27.880;2022-07-06T05:51:50;99874.25;;;35.53;27.50
56270;BME280;42176;43.240;27.880;2022-07-06T05:54:15;99874.88;;;35.55;27.71
56270;BME280;42176;43.240;27.880;2022-07-06T05:56:41;99872.84;;;35.71;26.72
56270;BME280;42176;43.240;27.880;2022-07-06T05:59:06;99872.47;;;35.87;27.28
56270;BME280;42176;43.240;27.880;2022-07-06T06:01:32;99869.31;;;35.90;27.09
56270;BME280;42176;43.240;27.880;2022-07-06T06:03:57;99880.69;;;35.67;27.65
56270;BME280;42176;43.240;27.880;2022-07-06T06:06:25;99875.78;;;35.62;27.51
56270;BME280;42176;43.240;27.880;2022-07-06T06:08:50;99874.13;;;35.75;27.78
56270;BME280;42176;43.240;27.880;2022-07-06T06:11:16;99874.16;;;35.81;27.41
56270;BME280;42176;43.240;27.880;2022-07-06T06:13:41;99865.97;;;36.02;27.26
56270;BME280;42176;43.240;27.880;2022-07-06T06:16:07;99867.50;;;36.04;26.90
56270;BME280;42176;43.240;27.880;2022-07-06T06:18:32;99864.94;;;36.09;26.76
56270;BME280;42176;43.240;27.880;2022-07-06T06:20:58;99860.25;;;35.96;27.22
56270;BME280;42176;43.240;27.880;2022-07-06T06:23:23;99856.47;;;36.04;26.96
56270;BME280;42176;43.240;27.880;2022-07-06T06:25:49;99857.28;;;35.98;26.72
56270;BME280;42176;43.240;27.880;2022-07-06T06:28:14;99862.09;;;35.89;26.89
56270;BME280;42176;43.240;27.880;2022-07-06T06:30:40;99860.94;;;36.12;26.92
56270;BME280;42176;43.240;27.880;2022-07-06T06:33:18;99849.75;;;36.47;26.52
56270;BME280;42176;43.240;27.880;2022-07-06T06:35:49;99855.22;;;36.40;26.33
56270;BME280;42176;43.240;27.880;2022-07-06T06:38:16;99859.53;;;36.56;25.93
56270;BME280;42176;43.240;27.880;2022-07-06T06:40:41;99847.22;;;36.66;25.52
56270;BME280;42176;43.240;27.880;2022-07-06T06:43:07;99858.66;;;36.69;25.86
56270;BME280;42176;43.240;27.880;2022-07-06T06:45:33;99853.13;;;36.76;25.19
56270;BME280;42176;43.240;27.880;2022-07-06T06:47:59;99852.53;;;36.74;26.43
56270;BME280;42176;43.240;27.880;2022-07-06T06:50:24;99846.75;;;37.09;25.59
56270;BME280;42176;43.240;27.880;2022-07-06T06:52:50;99849.69;;;37.28;25.52
56270;BME280;42176;43.240;27.880;2022-07-06T06:55:16;99847.94;;;37.40;24.83
56270;BME280;42176;43.240;27.880;2022-07-06T06:57:42;99856.84;;;37.56;24.79
56270;BME280;42176;43.240;27.880;2022-07-06T07:00:08;99851.69;;;37.73;24.56
56270;BME280;42176;43.240;27.880;2022-07-06T07:02:34;99845.69;;;37.89;23.91
56270;BME280;42176;43.240;27.880;2022-07-06T07:04:59;99849.44;;;38.02;24.19
56270;BME280;42176;43.240;27.880;2022-07-06T07:07:25;99849.53;;;37.82;24.88
56270;BME280;42176;43.240;27.880;2022-07-06T07:09:50;99849.19;;;37.58;24.59
56270;BME280;42176;43.240;27.880;2022-07-06T07:12:16;99850.09;;;37.52;24.50
56270;BME280;42176;43.240;27.880;2022-07-06T07:14:43;99850.31;;;37.43;24.70
56270;BME280;42176;43.240;27.880;2022-07-06T07:17:08;99850.09;;;37.52;25.42
56270;BME280;42176;43.240;27.880;2022-07-06T07:19:35;99851.31;;;37.56;24.33
56270;BME280;42176;43.240;27.880;2022-07-06T07:22:01;99843.38;;;38.18;23.25
56270;BME280;42176;43.240;27.880;2022-07-06T07:24:26;99857.81;;;39.28;22.52
56270;BME280;42176;43.240;27.880;2022-07-06T07:26:52;99850.19;;;40.41;20.95
56270;BME280;42176;43.240;27.880;2022-07-06T07:29:17;99858.75;;;40.51;20.72
56270;BME280;42176;43.240;27.880;2022-07-06T07:31:43;99854.53;;;40.48;21.06
56270;BME280;42176;43.240;27.880;2022-07-06T07:34:08;99857.19;;;40.43;21.33
56270;BME280;42176;43.240;27.880;2022-07-06T07:36:34;99861.25;;;40.29;21.57
56270;BME280;42176;43.240;27.880;2022-07-06T07:38:59;99865.91;;;40.59;20.42
56270;BME280;42176;43.240;27.880;2022-07-06T07:41:24;99858.91;;;40.68;21.06
56270;BME280;42176;43.240;27.880;2022-07-06T07:43:50;99856.03;;;40.63;21.25
56270;BME280;42176;43.240;27.880;2022-07-06T07:46:16;99866.81;;;41.07;21.19
56270;BME280;42176;43.240;27.880;2022-07-06T07:48:41;99854.13;;;41.23;21.34
56270;BME280;42176;43.240;27.880;2022-07-06T07:51:07;99859.19;;;41.02;20.78
56270;BME280;42176;43.240;27.880;2022-07-06T07:53:32;99855.16;;;40.62;20.68
56270;BME280;42176;43.240;27.880;2022-07-06T07:55:58;99856.47;;;40.60;21.01
56270;BME280;42176;43.240;27.880;2022-07-06T07:58:23;99858.34;;;41.02;20.42
56270;BME280;42176;43.240;27.880;2022-07-06T08:00:49;99857.13;;;40.86;19.48
56270;BME280;42176;43.240;27.880;2022-07-06T08:03:14;99863.28;;;40.64;20.19
56270;BME280;42176;43.240;27.880;2022-07-06T08:05:40;99868.75;;;40.40;20.04
56270;BME280;42176;43.240;27.880;2022-07-06T08:08:05;99850.41;;;40.39;19.87
56270;BME280;42176;43.240;27.880;2022-07-06T08:10:31;99855.97;;;40.39;19.91
56270;BME280;42176;43.240;27.880;2022-07-06T08:12:56;99863.06;;;40.23;20.69
56270;BME280;42176;43.240;27.880;2022-07-06T08:15:22;99865.38;;;40.38;20.14
56270;BME280;42176;43.240;27.880;2022-07-06T08:17:48;99849.84;;;40.18;20.06
56270;BME280;42176;43.240;27.880;2022-07-06T08:20:14;99859.81;;;40.38;20.64
56270;BME280;42176;43.240;27.880;2022-07-06T08:22:39;99874.91;;;40.12;20.34
56270;BME280;42176;43.240;27.880;2022-07-06T08:25:06;99873.47;;;40.09;20.79
56270;BME280;42176;43.240;27.880;2022-07-06T08:27:32;99868.66;;;39.86;20.45
56270;BME280;42176;43.240;27.880;2022-07-06T08:29:58;99857.97;;;39.52;20.87
56270;BME280;42176;43.240;27.880;2022-07-06T08:32:25;99865.84;;;39.37;21.11
56270;BME280;42176;43.240;27.880;2022-07-06T08:34:50;99867.91;;;38.97;21.08
56270;BME280;42176;43.240;27.880;2022-07-06T08:37:16;99867.53;;;38.36;22.32
56270;BME280;42176;43.240;27.880;2022-07-06T08:39:41;99849.44;;;38.66;21.85
56270;BME280;42176;43.240;27.880;2022-07-06T08:42:07;99866.75;;;38.80;21.88
56270;BME280;42176;43.240;27.880;2022-07-06T08:44:36;99861.75;;;38.95;21.20
56270;BME280;42176;43.240;27.880;2022-07-06T08:47:05;99862.16;;;38.74;22.03
56270;BME280;42176;43.240;27.880;2022-07-06T08:49:32;99860.28;;;38.93;21.31
56270;BME280;42176;43.240;27.880;2022-07-06T08:52:00;99862.06;;;38.23;22.25
56270;BME280;42176;43.240;27.880;2022-07-06T08:54:26;99858.22;;;38.24;22.34
56270;BME280;42176;43.240;27.880;2022-07-06T08:56:52;99859.94;;;38.57;21.62
56270;BME280;42176;43.240;27.880;2022-07-06T08:59:17;99861.56;;;38.40;21.61
56270;BME280;42176;43.240;27.880;2022-07-06T09:01:44;99859.50;;;38.28;21.95
56270;BME280;42176;43.240;27.880;2022-07-06T09:04:12;99855.81;;;38.92;22.25
56270;BME280;42176;43.240;27.880;2022-07-06T09:06:40;99845.31;;;39.56;20.46
56270;BME280;42176;43.240;27.880;2022-07-06T09:09:07;99852.94;;;37.84;22.99
56270;BME280;42176;43.240;27.880;2022-07-06T09:11:33;99848.47;;;37.83;22.68
56270;BME280;42176;43.240;27.880;2022-07-06T09:13:58;99852.22;;;37.50;22.54
56270;BME280;42176;43.240;27.880;2022-07-06T09:16:29;99853.13;;;37.16;22.95
56270;BME280;42176;43.240;27.880;2022-07-06T09:18:56;99838.72;;;36.81;24.34
56270;BME280;42176;43.240;27.880;2022-07-06T09:21:27;99844.34;;;36.05;24.74
56270;BME280;42176;43.240;27.880;2022-07-06T09:23:56;99836.16;;;35.28;25.59
56270;BME280;42176;43.240;27.880;2022-07-06T09:26:23;99841.47;;;34.95;26.46
56270;BME280;42176;43.240;27.880;2022-07-06T09:28:49;99836.31;;;34.91;26.38
56270;BME280;42176;43.240;27.880;2022-07-06T09:31:15;99844.53;;;34.56;27.08
56270;BME280;42176;43.240;27.880;2022-07-06T09:34:03;99841.94;;;34.11;27.64
56270;BME280;42176;43.240;27.880;2022-07-06T09:36:38;99831.00;;;33.81;28.74
56270;BME280;42176;43.240;27.880;2022-07-06T09:39:20;99834.34;;;33.92;28.16
56270;BME280;42176;43.240;27.880;2022-07-06T09:41:57;99828.75;;;33.70;28.57
56270;BME280;42176;43.240;27.880;2022-07-06T09:44:42;99833.09;;;33.79;28.50
56270;BME280;42176;43.240;27.880;2022-07-06T09:47:09;99828.06;;;33.46;29.74
56270;BME280;42176;43.240;27.880;2022-07-06T09:49:36;99822.03;;;33.73;28.17
56270;BME280;42176;43.240;27.880;2022-07-06T09:52:04;99768.19;;;33.42;28.07
56270;BME280;42176;43.240;27.880;2022-07-06T09:54:30;99818.22;;;33.74;28.40
56270;BME280;42176;43.240;27.880;2022-07-06T09:56:57;99828.44;;;33.43;29.12
56270;BME280;42176;43.240;27.880;2022-07-06T09:59:25;99819.28;;;32.21;29.72
56270;BME280;42176;43.240;27.880;2022-07-06T10:01:55;99823.41;;;32.17;30.33
56270;BME280;42176;43.240;27.880;2022-07-06T10:04:22;99818.44;;;32.44;30.68
56270;BME280;42176;43.240;27.880;2022-07-06T10:06:49;99818.28;;;32.60;30.42
56270;BME280;42176;43.240;27.880;2022-07-06T10:09:15;99813.00;;;32.74;29.88
56270;BME280;42176;43.240;27.880;2022-07-06T10:11:47;99811.38;;;33.03;29.31
56270;BME280;42176;43.240;27.880;2022-07-06T10:14:17;99812.88;;;32.90;29.66
56270;BME280;42176;43.240;27.880;2022-07-06T10:16:45;99815.19;;;32.17;30.73
56270;BME280;42176;43.240;27.880;2022-07-06T10:19:11;99823.25;;;30.91;32.50
56270;BME280;42176;43.240;27.880;2022-07-06T10:21:39;99823.63;;;30.38;34.10
56270;BME280;42176;43.240;27.880;2022-07-06T10:24:06;99821.41;;;30.66;32.69
56270;BME280;42176;43.240;27.880;2022-07-06T10:26:33;99819.88;;;30.56;35.17
56270;BME280;42176;43.240;27.880;2022-07-06T10:28:59;99814.06;;;30.17;33.74
56270;BME280;42176;43.240;27.880;2022-07-06T10:31:29;99815.41;;;30.13;33.04
56270;BME280;42176;43.240;27.880;2022-07-06T10:33:57;99814.75;;;30.69;32.81
56270;BME280;42176;43.240;27.880;2022-07-06T10:36:24;99816.44;;;30.78;32.34
56270;BME280;42176;43.240;27.880;2022-07-06T10:38:51;99810.97;;;30.78;32.53
56270;BME280;42176;43.240;27.880;2022-07-06T10:41:18;99807.50;;;31.01;32.61
56270;BME280;42176;43.240;27.880;2022-07-06T10:43:47;99795.78;;;31.32;31.60
56270;BME280;42176;43.240;27.880;2022-07-06T10:46:18;99810.50;;;31.31;31.48
56270;BME280;42176;43.240;27.880;2022-07-06T10:48:48;99811.69;;;30.64;31.79
56270;BME280;42176;43.240;27.880;2022-07-06T10:51:25;99816.25;;;30.14;34.27
56270;BME280;42176;43.240;27.880;2022-07-06T10:53:59;99810.31;;;30.18;33.46
56270;BME280;42176;43.240;27.880;2022-07-06T10:56:36;99812.00;;;30.28;33.96
56270;BME280;42176;43.240;27.880;2022-07-06T10:59:09;99805.16;;;30.07;33.05
56270;BME280;42176;43.240;27.880;2022-07-06T11:01:36;99798.59;;;29.83;33.78
56270;BME280;42176;43.240;27.880;2022-07-06T11:06:32;99799.34;;;30.10;34.36
56270;BME280;42176;43.240;27.880;2022-07-06T11:09:08;99772.31;;;29.74;35.84
56270;BME280;42176;43.240;27.880;2022-07-06T11:14:01;99785.94;;;29.66;35.19
56270;BME280;42176;43.240;27.880;2022-07-06T11:16:29;99782.53;;;29.80;36.29
56270;BME280;42176;43.240;27.880;2022-07-06T11:21:50;99775.28;;;29.46;34.81
56270;BME280;42176;43.240;27.880;2022-07-06T11:24:19;99781.00;;;29.86;35.74
56270;BME280;42176;43.240;27.880;2022-07-06T11:26:46;99775.78;;;30.09;35.71
56270;BME280;42176;43.240;27.880;2022-07-06T11:29:14;99773.31;;;29.73;35.57
56270;BME280;42176;43.240;27.880;2022-07-06T11:31:41;99781.19;;;29.92;35.68
56270;BME280;42176;43.240;27.880;2022-07-06T11:34:09;99780.50;;;29.90;34.62
56270;BME280;42176;43.240;27.880;2022-07-06T11:36:35;99789.13;;;30.04;33.89
56270;BME280;42176;43.240;27.880;2022-07-06T11:39:01;99784.94;;;29.91;34.03
56270;BME280;42176;43.240;27.880;2022-07-06T11:41:27;99775.72;;;29.84;35.59
56270;BME280;42176;43.240;27.880;2022-07-06T11:43:56;99781.84;;;29.78;35.38
56270;BME280;42176;43.240;27.880;2022-07-06T11:46:25;99781.00;;;29.86;35.18
56270;BME280;42176;43.240;27.880;2022-07-06T11:49:08;99771.94;;;29.77;35.73
56270;BME280;42176;43.240;27.880;2022-07-06T11:51:38;99778.84;;;29.98;36.03
56270;BME280;42176;43.240;27.880;2022-07-06T11:54:20;99778.88;;;30.31;34.87
56270;BME280;42176;43.240;27.880;2022-07-06T11:56:57;99769.91;;;29.79;35.52
56270;BME280;42176;43.240;27.880;2022-07-06T11:59:28;99758.66;;;29.82;35.95
56270;BME280;42176;43.240;27.880;2022-07-06T12:02:09;99760.00;;;29.78;36.02
56270;BME280;42176;43.240;27.880;2022-07-06T12:04:40;99764.78;;;29.68;35.52
56270;BME280;42176;43.240;27.880;2022-07-06T12:07:11;99769.63;;;30.15;36.29
56270;BME280;42176;43.240;27.880;2022-07-06T12:09:39;99766.75;;;30.25;35.60
56270;BME280;42176;43.240;27.880;2022-07-06T12:12:08;99764.84;;;30.67;35.55
56270;BME280;42176;43.240;27.880;2022-07-06T12:14:36;99772.34;;;30.07;35.06
56270;BME280;42176;43.240;27.880;2022-07-06T12:17:10;99756.59;;;29.92;35.87
56270;BME280;42176;43.240;27.880;2022-07-06T12:19:37;99750.50;;;30.32;34.92
56270;BME280;42176;43.240;27.880;2022-07-06T12:22:03;99758.03;;;30.05;35.15
56270;BME280;42176;43.240;27.880;2022-07-06T12:24:31;99755.78;;;30.33;36.10
56270;BME280;42176;43.240;27.880;2022-07-06T12:26:58;99757.47;;;30.67;35.35
56270;BME280;42176;43.240;27.880;2022-07-06T12:29:34;99745.22;;;31.03;35.09
56270;BME280;42176;43.240;27.880;2022-07-06T12:31:59;99744.25;;;30.96;34.58
56270;BME280;42176;43.240;27.880;2022-07-06T12:34:28;99743.06;;;31.38;34.50
56270;BME280;42176;43.240;27.880;2022-07-06T12:37:05;99739.97;;;31.41;32.58
56270;BME280;42176;43.240;27.880;2022-07-06T12:39:31;99735.88;;;31.37;33.19
56270;BME280;42176;43.240;27.880;2022-07-06T12:42:04;99731.69;;;31.18;34.94
56270;BME280;42176;43.240;27.880;2022-07-06T12:44:31;99727.16;;;30.86;35.50
56270;BME280;42176;43.240;27.880;2022-07-06T12:47:06;99732.69;;;30.77;37.47
56270;BME280;42176;43.240;27.880;2022-07-06T12:49:33;99717.75;;;31.36;35.75
56270;BME280;42176;43.240;27.880;2022-07-06T12:54:34;99726.97;;;31.35;35.09
56270;BME280;42176;43.240;27.880;2022-07-06T12:59:35;99722.56;;;31.89;36.84
56270;BME280;42176;43.240;27.880;2022-07-06T13:02:02;99711.28;;;31.84;34.36
56270;BME280;42176;43.240;27.880;2022-07-06T13:04:29;99716.69;;;30.97;38.07